This is the latest recevied weather packets stored in our database for station/object WP3OF-5. If no packets are shown the sender has not sent any weather packets the latest 10 day(s).
| Time | Temp. | Humidity | Pressure | Rain* | Wind** | Luminosity | Snow |
|---|---|---|---|---|---|---|---|
| 1777759276 | 26.67° C | 84% | 1015.1 hPa | 0 mm | - | - | - |
| 1777757761 | 26.67° C | 85% | 1014.8 hPa | 0 mm | - | - | - |
| 1777757459 | 26.67° C | 84% | 1014.7 hPa | 0 mm | - | - | - |
| 1777757158 | 27.22° C | 85% | 1014.5 hPa | 0 mm | - | - | - |
| 1777756855 | 27.22° C | 86% | 1014.8 hPa | 0 mm | - | - | - |
| 1777756550 | 27.22° C | 86% | 1014.5 hPa | 0 mm | - | - | - |
| 1777756248 | 26.67° C | 86% | 1014.4 hPa | 0 mm | - | - | - |
| 1777755945 | 26.67° C | 85% | 1014.4 hPa | 0 mm | - | - | - |
| 1777755642 | 26.67° C | 85% | 1014.4 hPa | 0 mm | - | - | - |
| 1777755036 | 26.67° C | 84% | 1014.4 hPa | 0 mm | - | - | - |
| 1777754127 | 27.22° C | 83% | 1014.5 hPa | 0 mm | - | - | - |
| 1777753520 | 27.78° C | 82% | 1014.5 hPa | 0 mm | - | - | - |
| 1777753219 | 27.22° C | 83% | 1014.6 hPa | 0 mm | - | - | - |
| 1777752914 | 27.22° C | 84% | 1014.4 hPa | 0 mm | - | - | - |
| 1777752610 | 26.67° C | 85% | 1014.3 hPa | 0 mm | - | - | - |
| 1777752307 | 26.67° C | 87% | 1014.4 hPa | 0 mm | - | - | - |
| 1777752005 | 26.11° C | 87% | 1014.6 hPa | 0 mm | - | - | - |
| 1777751095 | 26.67° C | 84% | 1014.6 hPa | 0 mm | - | - | - |
| 1777750488 | 27.78° C | 81% | 1014.8 hPa | 0 mm | - | - | - |
| 1777750184 | 28.33° C | 77% | 1014.8 hPa | 0 mm | - | - | - |
| 1777749881 | 28.33° C | 78% | 1014.4 hPa | 0 mm | - | - | - |
| 1777749577 | 28.89° C | 77% | 1014.4 hPa | 0 mm | - | - | - |
| 1777749275 | 29.44° C | 75% | 1014.5 hPa | 0 mm | - | - | - |
| 1777748973 | 30° C | 75% | 1014.4 hPa | 0 mm | - | - | - |
| 1777748669 | 30.56° C | 74% | 1014.3 hPa | 0 mm | - | - | - |
* Rain latest hour (hover to see other rain measurements)
** Current wind speed in m/s (hover to see current wind gust speed)